sensor_id;sensor_type;location;lat;lon;timestamp;pressure;altitude;pressure_sealevel;temperature;humidity
55604;BME280;41468;48.838;9.330;2023-10-19T00:02:09;96727.09;;;11.06;100.00
55604;BME280;41468;48.838;9.330;2023-10-19T00:04:42;96722.03;;;11.08;100.00
55604;BME280;41468;48.838;9.330;2023-10-19T00:07:09;96729.38;;;11.11;100.00
55604;BME280;41468;48.838;9.330;2023-10-19T00:09:43;96734.09;;;11.11;100.00
55604;BME280;41468;48.838;9.330;2023-10-19T00:12:14;96718.41;;;11.15;100.00
55604;BME280;41468;48.838;9.330;2023-10-19T00:14:43;96719.91;;;11.19;100.00
55604;BME280;41468;48.838;9.330;2023-10-19T00:17:09;96716.41;;;11.19;100.00
55604;BME280;41468;48.838;9.330;2023-10-19T00:19:38;96720.66;;;11.23;100.00
55604;BME280;41468;48.838;9.330;2023-10-19T00:22:06;96716.34;;;11.26;100.00
55604;BME280;41468;48.838;9.330;2023-10-19T00:24:47;96723.03;;;11.21;100.00
55604;BME280;41468;48.838;9.330;2023-10-19T00:27:18;96715.16;;;11.27;100.00
55604;BME280;41468;48.838;9.330;2023-10-19T00:29:48;96722.59;;;11.23;100.00
55604;BME280;41468;48.838;9.330;2023-10-19T00:32:16;96719.06;;;11.26;100.00
55604;BME280;41468;48.838;9.330;2023-10-19T00:34:44;96716.75;;;11.24;100.00
55604;BME280;41468;48.838;9.330;2023-10-19T00:37:19;96715.81;;;11.35;100.00
55604;BME280;41468;48.838;9.330;2023-10-19T00:39:54;96712.66;;;11.36;100.00
55604;BME280;41468;48.838;9.330;2023-10-19T00:42:22;96709.53;;;11.38;100.00
55604;BME280;41468;48.838;9.330;2023-10-19T00:44:57;96715.69;;;11.45;100.00
55604;BME280;41468;48.838;9.330;2023-10-19T00:47:31;96705.97;;;11.41;100.00
55604;BME280;41468;48.838;9.330;2023-10-19T00:50:08;96710.91;;;11.49;100.00
55604;BME280;41468;48.838;9.330;2023-10-19T00:52:43;96710.16;;;11.49;100.00
55604;BME280;41468;48.838;9.330;2023-10-19T00:55:24;96707.03;;;11.50;100.00
55604;BME280;41468;48.838;9.330;2023-10-19T00:57:54;96697.56;;;11.55;100.00
55604;BME280;41468;48.838;9.330;2023-10-19T01:00:21;96693.66;;;11.56;100.00
55604;BME280;41468;48.838;9.330;2023-10-19T01:03:00;96685.41;;;11.60;100.00
55604;BME280;41468;48.838;9.330;2023-10-19T01:05:27;96682.66;;;11.60;100.00
55604;BME280;41468;48.838;9.330;2023-10-19T01:08:03;96671.25;;;11.65;100.00
55604;BME280;41468;48.838;9.330;2023-10-19T01:10:41;96667.69;;;11.68;100.00
55604;BME280;41468;48.838;9.330;2023-10-19T01:13:10;96668.47;;;11.68;100.00
55604;BME280;41468;48.838;9.330;2023-10-19T01:15:38;96666.09;;;11.70;100.00
55604;BME280;41468;48.838;9.330;2023-10-19T01:18:05;96649.03;;;11.63;100.00
55604;BME280;41468;48.838;9.330;2023-10-19T01:20:34;96654.78;;;11.68;100.00
55604;BME280;41468;48.838;9.330;2023-10-19T01:23:14;96651.75;;;11.63;100.00
55604;BME280;41468;48.838;9.330;2023-10-19T01:25:49;96650.94;;;11.66;100.00
55604;BME280;41468;48.838;9.330;2023-10-19T01:28:33;96634.88;;;11.68;100.00
55604;BME280;41468;48.838;9.330;2023-10-19T01:31:22;96625.16;;;11.67;100.00
55604;BME280;41468;48.838;9.330;2023-10-19T01:33:49;96626.00;;;11.64;100.00
55604;BME280;41468;48.838;9.330;2023-10-19T01:36:17;96623.97;;;11.68;100.00
55604;BME280;41468;48.838;9.330;2023-10-19T01:38:50;96629.72;;;11.73;100.00
55604;BME280;41468;48.838;9.330;2023-10-19T01:41:25;96623.63;;;11.89;100.00
55604;BME280;41468;48.838;9.330;2023-10-19T01:43:53;96612.50;;;12.00;100.00
55604;BME280;41468;48.838;9.330;2023-10-19T01:46:22;96607.47;;;12.19;100.00
55604;BME280;41468;48.838;9.330;2023-10-19T01:48:53;96609.72;;;12.24;100.00
55604;BME280;41468;48.838;9.330;2023-10-19T01:51:35;96603.94;;;12.42;100.00
55604;BME280;41468;48.838;9.330;2023-10-19T01:54:07;96603.84;;;12.45;100.00
55604;BME280;41468;48.838;9.330;2023-10-19T01:56:34;96596.63;;;12.55;100.00
55604;BME280;41468;48.838;9.330;2023-10-19T01:59:06;96594.84;;;12.65;100.00
55604;BME280;41468;48.838;9.330;2023-10-19T02:01:34;96586.41;;;12.75;100.00
55604;BME280;41468;48.838;9.330;2023-10-19T02:04:05;96592.97;;;12.81;100.00
55604;BME280;41468;48.838;9.330;2023-10-19T02:06:34;96585.34;;;12.89;100.00
55604;BME280;41468;48.838;9.330;2023-10-19T02:09:03;96587.06;;;12.99;100.00
55604;BME280;41468;48.838;9.330;2023-10-19T02:11:56;96587.16;;;12.96;100.00
55604;BME280;41468;48.838;9.330;2023-10-19T02:14:27;96579.28;;;12.98;100.00
55604;BME280;41468;48.838;9.330;2023-10-19T02:16:59;96584.16;;;12.90;100.00
55604;BME280;41468;48.838;9.330;2023-10-19T02:19:27;96578.59;;;12.94;100.00
55604;BME280;41468;48.838;9.330;2023-10-19T02:21:58;96582.19;;;12.91;100.00
55604;BME280;41468;48.838;9.330;2023-10-19T02:24:26;96574.47;;;12.86;100.00
55604;BME280;41468;48.838;9.330;2023-10-19T02:26:55;96570.97;;;12.85;100.00
55604;BME280;41468;48.838;9.330;2023-10-19T02:29:23;96566.16;;;12.89;100.00
55604;BME280;41468;48.838;9.330;2023-10-19T02:31:50;96560.28;;;12.91;100.00
55604;BME280;41468;48.838;9.330;2023-10-19T02:34:17;96563.09;;;12.87;100.00
55604;BME280;41468;48.838;9.330;2023-10-19T02:36:45;96567.78;;;12.87;100.00
55604;BME280;41468;48.838;9.330;2023-10-19T02:39:14;96570.19;;;12.85;100.00
55604;BME280;41468;48.838;9.330;2023-10-19T02:41:45;96562.75;;;12.85;100.00
55604;BME280;41468;48.838;9.330;2023-10-19T02:44:16;96564.59;;;12.72;100.00
55604;BME280;41468;48.838;9.330;2023-10-19T02:46:46;96562.97;;;12.74;100.00
55604;BME280;41468;48.838;9.330;2023-10-19T02:49:13;96563.81;;;12.71;100.00
55604;BME280;41468;48.838;9.330;2023-10-19T02:51:50;96564.31;;;12.66;100.00
55604;BME280;41468;48.838;9.330;2023-10-19T02:54:20;96557.22;;;12.69;100.00
55604;BME280;41468;48.838;9.330;2023-10-19T02:56:51;96549.44;;;12.67;100.00
55604;BME280;41468;48.838;9.330;2023-10-19T02:59:21;96561.22;;;12.64;100.00
55604;BME280;41468;48.838;9.330;2023-10-19T03:02:00;96557.50;;;12.74;100.00
55604;BME280;41468;48.838;9.330;2023-10-19T03:04:45;96551.00;;;12.68;100.00
55604;BME280;41468;48.838;9.330;2023-10-19T03:07:24;96550.19;;;12.68;100.00
55604;BME280;41468;48.838;9.330;2023-10-19T03:09:50;96553.38;;;12.66;100.00
55604;BME280;41468;48.838;9.330;2023-10-19T03:12:21;96552.16;;;12.67;100.00
55604;BME280;41468;48.838;9.330;2023-10-19T03:14:52;96549.44;;;12.67;100.00
55604;BME280;41468;48.838;9.330;2023-10-19T03:17:19;96551.13;;;12.61;100.00
55604;BME280;41468;48.838;9.330;2023-10-19T03:19:45;96544.22;;;12.73;100.00
55604;BME280;41468;48.838;9.330;2023-10-19T03:22:12;96540.63;;;12.76;100.00
55604;BME280;41468;48.838;9.330;2023-10-19T03:24:41;96531.50;;;12.82;100.00
55604;BME280;41468;48.838;9.330;2023-10-19T03:27:11;96523.81;;;12.94;100.00
55604;BME280;41468;48.838;9.330;2023-10-19T03:29:51;96528.44;;;12.97;100.00
55604;BME280;41468;48.838;9.330;2023-10-19T03:32:22;96531.66;;;12.92;100.00
55604;BME280;41468;48.838;9.330;2023-10-19T03:34:55;96524.66;;;12.91;100.00
55604;BME280;41468;48.838;9.330;2023-10-19T03:37:27;96515.59;;;12.94;100.00
55604;BME280;41468;48.838;9.330;2023-10-19T03:39:58;96518.69;;;12.96;100.00
55604;BME280;41468;48.838;9.330;2023-10-19T03:42:25;96520.66;;;12.95;100.00
55604;BME280;41468;48.838;9.330;2023-10-19T03:44:54;96517.97;;;12.92;100.00
55604;BME280;41468;48.838;9.330;2023-10-19T03:47:22;96508.91;;;12.95;100.00
55604;BME280;41468;48.838;9.330;2023-10-19T03:49:53;96509.75;;;12.92;100.00
55604;BME280;41468;48.838;9.330;2023-10-19T03:52:20;96499.50;;;12.96;100.00
55604;BME280;41468;48.838;9.330;2023-10-19T03:54:48;96490.94;;;12.94;100.00
55604;BME280;41468;48.838;9.330;2023-10-19T03:57:17;96501.13;;;12.93;100.00
55604;BME280;41468;48.838;9.330;2023-10-19T03:59:51;96496.84;;;12.92;100.00
55604;BME280;41468;48.838;9.330;2023-10-19T04:02:26;96504.97;;;12.79;100.00
55604;BME280;41468;48.838;9.330;2023-10-19T04:04:56;96501.69;;;12.68;100.00
55604;BME280;41468;48.838;9.330;2023-10-19T04:07:24;96508.94;;;12.58;100.00
55604;BME280;41468;48.838;9.330;2023-10-19T04:09:58;96495.16;;;12.62;100.00
55604;BME280;41468;48.838;9.330;2023-10-19T04:12:30;96483.91;;;12.60;100.00
55604;BME280;41468;48.838;9.330;2023-10-19T04:14:58;96492.28;;;12.69;100.00
55604;BME280;41468;48.838;9.330;2023-10-19T04:17:38;96479.19;;;12.77;100.00
55604;BME280;41468;48.838;9.330;2023-10-19T04:20:09;96474.13;;;12.75;100.00
55604;BME280;41468;48.838;9.330;2023-10-19T04:22:57;96472.63;;;12.74;100.00
55604;BME280;41468;48.838;9.330;2023-10-19T04:25:25;96468.84;;;12.68;100.00
55604;BME280;41468;48.838;9.330;2023-10-19T04:27:52;96460.91;;;12.74;100.00
55604;BME280;41468;48.838;9.330;2023-10-19T04:30:20;96463.69;;;12.70;100.00
55604;BME280;41468;48.838;9.330;2023-10-19T04:32:51;96469.44;;;12.76;100.00
55604;BME280;41468;48.838;9.330;2023-10-19T04:35:18;96461.16;;;12.79;100.00
55604;BME280;41468;48.838;9.330;2023-10-19T04:37:53;96459.28;;;12.76;100.00
55604;BME280;41468;48.838;9.330;2023-10-19T04:40:21;96461.13;;;12.63;100.00
55604;BME280;41468;48.838;9.330;2023-10-19T04:42:53;96457.91;;;12.68;100.00
55604;BME280;41468;48.838;9.330;2023-10-19T04:45:20;96452.84;;;12.67;100.00
55604;BME280;41468;48.838;9.330;2023-10-19T04:47:51;96455.31;;;12.61;100.00
55604;BME280;41468;48.838;9.330;2023-10-19T04:50:19;96454.44;;;12.64;100.00
55604;BME280;41468;48.838;9.330;2023-10-19T04:52:46;96453.78;;;12.60;100.00
55604;BME280;41468;48.838;9.330;2023-10-19T04:55:14;96449.56;;;12.55;100.00
55604;BME280;41468;48.838;9.330;2023-10-19T04:57:51;96449.56;;;12.55;100.00
55604;BME280;41468;48.838;9.330;2023-10-19T05:00:18;96436.00;;;12.68;100.00
55604;BME280;41468;48.838;9.330;2023-10-19T05:02:48;96434.69;;;12.73;100.00
55604;BME280;41468;48.838;9.330;2023-10-19T05:05:15;96439.59;;;12.81;100.00
55604;BME280;41468;48.838;9.330;2023-10-19T05:07:44;96447.72;;;12.85;100.00
55604;BME280;41468;48.838;9.330;2023-10-19T05:10:11;96441.72;;;12.74;100.00
55604;BME280;41468;48.838;9.330;2023-10-19T05:12:37;96451.03;;;12.60;100.00
55604;BME280;41468;48.838;9.330;2023-10-19T05:15:05;96444.00;;;12.59;100.00
55604;BME280;41468;48.838;9.330;2023-10-19T05:17:32;96439.50;;;12.69;100.00
55604;BME280;41468;48.838;9.330;2023-10-19T05:19:59;96442.28;;;12.65;100.00
55604;BME280;41468;48.838;9.330;2023-10-19T05:22:26;96442.13;;;12.72;100.00
55604;BME280;41468;48.838;9.330;2023-10-19T05:24:56;96448.81;;;12.71;100.00
55604;BME280;41468;48.838;9.330;2023-10-19T05:27:23;96445.91;;;12.78;100.00
55604;BME280;41468;48.838;9.330;2023-10-19T05:30:01;96445.06;;;12.81;100.00
55604;BME280;41468;48.838;9.330;2023-10-19T05:32:39;96454.38;;;12.84;100.00
55604;BME280;41468;48.838;9.330;2023-10-19T05:35:06;96452.34;;;12.88;100.00
55604;BME280;41468;48.838;9.330;2023-10-19T05:37:33;96455.94;;;12.85;100.00
55604;BME280;41468;48.838;9.330;2023-10-19T05:40:00;96456.84;;;12.78;100.00
55604;BME280;41468;48.838;9.330;2023-10-19T05:42:31;96454.97;;;12.75;100.00
55604;BME280;41468;48.838;9.330;2023-10-19T05:45:03;96456.19;;;12.74;100.00
55604;BME280;41468;48.838;9.330;2023-10-19T05:47:32;96460.38;;;12.79;100.00
55604;BME280;41468;48.838;9.330;2023-10-19T05:49:58;96465.56;;;12.73;100.00
55604;BME280;41468;48.838;9.330;2023-10-19T05:52:26;96459.06;;;12.67;100.00
55604;BME280;41468;48.838;9.330;2023-10-19T05:54:52;96453.78;;;12.60;100.00
55604;BME280;41468;48.838;9.330;2023-10-19T05:57:20;96465.75;;;12.66;100.00
55604;BME280;41468;48.838;9.330;2023-10-19T05:59:48;96465.81;;;12.63;100.00
55604;BME280;41468;48.838;9.330;2023-10-19T06:02:15;96464.28;;;12.62;100.00
55604;BME280;41468;48.838;9.330;2023-10-19T06:04:55;96466.88;;;12.69;100.00
55604;BME280;41468;48.838;9.330;2023-10-19T06:07:23;96471.75;;;12.77;100.00
55604;BME280;41468;48.838;9.330;2023-10-19T06:09:51;96467.13;;;12.74;100.00
55604;BME280;41468;48.838;9.330;2023-10-19T06:12:18;96464.56;;;12.67;100.00
55604;BME280;41468;48.838;9.330;2023-10-19T06:14:45;96464.19;;;12.65;100.00
55604;BME280;41468;48.838;9.330;2023-10-19T06:17:12;96460.28;;;12.66;100.00
55604;BME280;41468;48.838;9.330;2023-10-19T06:19:45;96457.53;;;12.66;100.00
55604;BME280;41468;48.838;9.330;2023-10-19T06:22:12;96464.72;;;12.60;100.00
55604;BME280;41468;48.838;9.330;2023-10-19T06:24:42;96469.00;;;12.61;100.00
55604;BME280;41468;48.838;9.330;2023-10-19T06:27:10;96467.47;;;12.60;100.00
55604;BME280;41468;48.838;9.330;2023-10-19T06:29:37;96473.78;;;12.57;100.00
55604;BME280;41468;48.838;9.330;2023-10-19T06:32:04;96479.06;;;12.48;100.00
55604;BME280;41468;48.838;9.330;2023-10-19T06:34:31;96482.94;;;12.30;100.00
55604;BME280;41468;48.838;9.330;2023-10-19T06:36:58;96486.19;;;12.25;100.00
55604;BME280;41468;48.838;9.330;2023-10-19T06:39:25;96479.94;;;12.25;100.00
55604;BME280;41468;48.838;9.330;2023-10-19T06:41:52;96480.88;;;12.18;100.00
55604;BME280;41468;48.838;9.330;2023-10-19T06:44:29;96473.69;;;12.24;100.00
55604;BME280;41468;48.838;9.330;2023-10-19T06:46:56;96471.41;;;12.23;100.00
55604;BME280;41468;48.838;9.330;2023-10-19T06:49:23;96477.63;;;12.23;100.00
55604;BME280;41468;48.838;9.330;2023-10-19T06:51:51;96467.88;;;12.22;100.00
55604;BME280;41468;48.838;9.330;2023-10-19T06:54:18;96474.53;;;12.21;100.00
55604;BME280;41468;48.838;9.330;2023-10-19T06:56:44;96471.41;;;12.23;100.00
55604;BME280;41468;48.838;9.330;2023-10-19T06:59:12;96468.22;;;12.24;100.00
55604;BME280;41468;48.838;9.330;2023-10-19T07:01:39;96468.94;;;12.28;100.00
55604;BME280;41468;48.838;9.330;2023-10-19T07:04:07;96470.38;;;12.33;100.00
55604;BME280;41468;48.838;9.330;2023-10-19T07:06:33;96474.59;;;12.37;100.00
55604;BME280;41468;48.838;9.330;2023-10-19T07:09:00;96464.69;;;12.44;100.00
55604;BME280;41468;48.838;9.330;2023-10-19T07:11:30;96459.56;;;12.46;100.00
55604;BME280;41468;48.838;9.330;2023-10-19T07:13:57;96465.13;;;12.42;100.00
55604;BME280;41468;48.838;9.330;2023-10-19T07:16:35;96460.81;;;12.41;100.00
55604;BME280;41468;48.838;9.330;2023-10-19T07:19:02;96459.66;;;12.42;100.00
55604;BME280;41468;48.838;9.330;2023-10-19T07:21:29;96454.06;;;12.46;100.00
55604;BME280;41468;48.838;9.330;2023-10-19T07:23:58;96461.13;;;12.47;100.00
55604;BME280;41468;48.838;9.330;2023-10-19T07:26:27;96441.78;;;12.54;100.00
55604;BME280;41468;48.838;9.330;2023-10-19T07:28:58;96456.31;;;12.51;100.00
55604;BME280;41468;48.838;9.330;2023-10-19T07:31:25;96462.66;;;12.48;100.00
55604;BME280;41468;48.838;9.330;2023-10-19T07:33:54;96464.97;;;12.49;100.00
55604;BME280;41468;48.838;9.330;2023-10-19T07:36:23;96461.69;;;12.54;100.00
55604;BME280;41468;48.838;9.330;2023-10-19T07:38:51;96447.25;;;12.54;100.00
55604;BME280;41468;48.838;9.330;2023-10-19T07:41:18;96455.81;;;12.56;100.00
55604;BME280;41468;48.838;9.330;2023-10-19T07:43:45;96465.22;;;12.55;100.00
55604;BME280;41468;48.838;9.330;2023-10-19T07:46:12;96460.53;;;12.55;100.00
55604;BME280;41468;48.838;9.330;2023-10-19T07:48:43;96449.84;;;12.61;100.00
55604;BME280;41468;48.838;9.330;2023-10-19T07:51:10;96447.78;;;12.65;100.00
55604;BME280;41468;48.838;9.330;2023-10-19T07:53:37;96445.63;;;12.73;100.00
55604;BME280;41468;48.838;9.330;2023-10-19T07:56:04;96443.50;;;12.80;100.00
55604;BME280;41468;48.838;9.330;2023-10-19T07:58:31;96438.53;;;12.92;100.00
55604;BME280;41468;48.838;9.330;2023-10-19T08:00:58;96434.13;;;12.98;100.00
55604;BME280;41468;48.838;9.330;2023-10-19T08:03:25;96438.22;;;13.06;100.00
55604;BME280;41468;48.838;9.330;2023-10-19T08:05:52;96431.34;;;13.14;100.00
55604;BME280;41468;48.838;9.330;2023-10-19T08:08:19;96436.16;;;13.26;100.00
55604;BME280;41468;48.838;9.330;2023-10-19T08:10:46;96431.94;;;13.38;100.00
55604;BME280;41468;48.838;9.330;2023-10-19T08:13:13;96436.19;;;13.56;100.00
55604;BME280;41468;48.838;9.330;2023-10-19T08:15:40;96437.53;;;13.64;100.00
55604;BME280;41468;48.838;9.330;2023-10-19T08:18:07;96439.56;;;13.76;100.00
55604;BME280;41468;48.838;9.330;2023-10-19T08:20:34;96431.66;;;13.78;100.00
55604;BME280;41468;48.838;9.330;2023-10-19T08:23:03;96429.47;;;13.86;100.00
55604;BME280;41468;48.838;9.330;2023-10-19T08:25:32;96434.41;;;13.91;100.00
55604;BME280;41468;48.838;9.330;2023-10-19T08:28:19;96433.34;;;14.01;100.00
55604;BME280;41468;48.838;9.330;2023-10-19T08:30:46;96436.31;;;14.07;100.00
55604;BME280;41468;48.838;9.330;2023-10-19T08:33:24;96440.84;;;14.13;100.00
55604;BME280;41468;48.838;9.330;2023-10-19T08:35:56;96439.44;;;14.22;100.00
55604;BME280;41468;48.838;9.330;2023-10-19T08:38:27;96434.81;;;14.19;100.00
55604;BME280;41468;48.838;9.330;2023-10-19T08:40:55;96433.97;;;14.47;100.00
55604;BME280;41468;48.838;9.330;2023-10-19T08:43:23;96436.97;;;14.66;100.00
55604;BME280;41468;48.838;9.330;2023-10-19T08:45:51;96437.09;;;14.75;100.00
55604;BME280;41468;48.838;9.330;2023-10-19T08:48:18;96425.28;;;15.00;100.00
55604;BME280;41468;48.838;9.330;2023-10-19T08:50:45;96423.38;;;15.10;100.00
55604;BME280;41468;48.838;9.330;2023-10-19T08:53:13;96432.06;;;15.21;100.00
55604;BME280;41468;48.838;9.330;2023-10-19T08:55:41;96432.13;;;15.30;100.00
55604;BME280;41468;48.838;9.330;2023-10-19T08:58:16;96432.53;;;15.41;100.00
55604;BME280;41468;48.838;9.330;2023-10-19T09:00:49;96429.97;;;15.47;100.00
55604;BME280;41468;48.838;9.330;2023-10-19T09:03:22;96433.19;;;15.45;100.00
55604;BME280;41468;48.838;9.330;2023-10-19T09:05:52;96418.31;;;15.56;100.00
55604;BME280;41468;48.838;9.330;2023-10-19T09:08:19;96431.91;;;15.72;100.00
55604;BME280;41468;48.838;9.330;2023-10-19T09:10:50;96414.47;;;15.97;100.00
55604;BME280;41468;48.838;9.330;2023-10-19T09:13:19;96417.97;;;16.20;100.00
55604;BME280;41468;48.838;9.330;2023-10-19T09:15:47;96406.59;;;16.40;100.00
55604;BME280;41468;48.838;9.330;2023-10-19T09:18:17;96407.88;;;16.57;100.00
55604;BME280;41468;48.838;9.330;2023-10-19T09:20:47;96404.53;;;16.93;100.00
55604;BME280;41468;48.838;9.330;2023-10-19T09:23:24;96410.22;;;17.27;98.83
55604;BME280;41468;48.838;9.330;2023-10-19T09:25:52;96408.56;;;17.66;99.28
55604;BME280;41468;48.838;9.330;2023-10-19T09:28:20;96407.47;;;17.73;94.41
55604;BME280;41468;48.838;9.330;2023-10-19T09:30:48;96409.03;;;17.74;92.13
55604;BME280;41468;48.838;9.330;2023-10-19T09:33:17;96411.63;;;17.77;91.81
55604;BME280;41468;48.838;9.330;2023-10-19T09:35:46;96415.63;;;17.85;91.50
55604;BME280;41468;48.838;9.330;2023-10-19T09:38:17;96413.00;;;17.91;92.19
55604;BME280;41468;48.838;9.330;2023-10-19T09:40:52;96415.78;;;17.82;93.48
55604;BME280;41468;48.838;9.330;2023-10-19T09:43:30;96400.91;;;17.52;91.50
55604;BME280;41468;48.838;9.330;2023-10-19T09:46:01;96393.84;;;17.32;92.51
55604;BME280;41468;48.838;9.330;2023-10-19T09:48:32;96388.19;;;17.45;93.71
55604;BME280;41468;48.838;9.330;2023-10-19T09:51:02;96389.41;;;17.53;90.34
55604;BME280;41468;48.838;9.330;2023-10-19T09:53:30;96385.88;;;17.53;90.80
55604;BME280;41468;48.838;9.330;2023-10-19T09:55:58;96378.22;;;17.66;88.89
55604;BME280;41468;48.838;9.330;2023-10-19T09:58:35;96378.97;;;17.66;88.98
55604;BME280;41468;48.838;9.330;2023-10-19T10:01:04;96374.22;;;17.76;89.61
55604;BME280;41468;48.838;9.330;2023-10-19T10:03:46;96383.88;;;17.90;88.77
55604;BME280;41468;48.838;9.330;2023-10-19T10:06:15;96380.63;;;17.92;89.10
55604;BME280;41468;48.838;9.330;2023-10-19T10:08:45;96383.25;;;17.86;91.97
55604;BME280;41468;48.838;9.330;2023-10-19T10:11:26;96382.81;;;17.60;90.85
55604;BME280;41468;48.838;9.330;2023-10-19T10:13:55;96373.31;;;17.52;92.42
55604;BME280;41468;48.838;9.330;2023-10-19T10:16:24;96380.50;;;17.40;93.89
55604;BME280;41468;48.838;9.330;2023-10-19T10:18:57;96383.28;;;17.40;95.10
55604;BME280;41468;48.838;9.330;2023-10-19T10:21:28;96371.16;;;17.19;93.80
55604;BME280;41468;48.838;9.330;2023-10-19T10:24:00;96368.25;;;17.22;96.11
55604;BME280;41468;48.838;9.330;2023-10-19T10:26:31;96371.00;;;17.13;95.98
55604;BME280;41468;48.838;9.330;2023-10-19T10:31:45;96361.81;;;17.07;96.86
55604;BME280;41468;48.838;9.330;2023-10-19T10:37:08;96353.97;;;16.87;98.09
55604;BME280;41468;48.838;9.330;2023-10-19T10:39:36;96360.41;;;16.93;98.68
55604;BME280;41468;48.838;9.330;2023-10-19T10:42:07;96363.03;;;16.97;97.73
55604;BME280;41468;48.838;9.330;2023-10-19T10:44:36;96358.75;;;17.05;98.00
55604;BME280;41468;48.838;9.330;2023-10-19T10:47:09;96357.97;;;17.14;97.11
55604;BME280;41468;48.838;9.330;2023-10-19T10:49:58;96359.69;;;17.20;96.49
55604;BME280;41468;48.838;9.330;2023-10-19T10:52:33;96354.91;;;17.21;96.51
55604;BME280;41468;48.838;9.330;2023-10-19T10:55:15;96350.63;;;17.20;95.97
55604;BME280;41468;48.838;9.330;2023-10-19T10:57:44;96353.69;;;17.22;96.00
55604;BME280;41468;48.838;9.330;2023-10-19T11:00:13;96351.84;;;17.10;97.05
55604;BME280;41468;48.838;9.330;2023-10-19T11:02:43;96357.06;;;17.08;97.17
55604;BME280;41468;48.838;9.330;2023-10-19T11:05:17;96353.53;;;17.07;96.74
55604;BME280;41468;48.838;9.330;2023-10-19T11:08:10;96361.19;;;17.03;96.89
55604;BME280;41468;48.838;9.330;2023-10-19T11:10:41;96357.81;;;16.99;98.38
55604;BME280;41468;48.838;9.330;2023-10-19T11:13:11;96352.59;;;16.92;97.34
55604;BME280;41468;48.838;9.330;2023-10-19T11:15:38;96377.41;;;16.92;99.05
55604;BME280;41468;48.838;9.330;2023-10-19T11:18:06;96358.25;;;16.88;98.92
55604;BME280;41468;48.838;9.330;2023-10-19T11:20:36;96362.38;;;16.84;99.56
55604;BME280;41468;48.838;9.330;2023-10-19T11:23:02;96361.47;;;16.87;98.90
55604;BME280;41468;48.838;9.330;2023-10-19T11:25:30;96356.88;;;16.84;100.00
55604;BME280;41468;48.838;9.330;2023-10-19T11:27:59;96366.06;;;16.81;100.00
55604;BME280;41468;48.838;9.330;2023-10-19T11:30:31;96360.78;;;16.73;100.00
55604;BME280;41468;48.838;9.330;2023-10-19T11:32:58;96359.91;;;16.76;100.00
55604;BME280;41468;48.838;9.330;2023-10-19T11:35:30;96360.19;;;16.69;100.00
55604;BME280;41468;48.838;9.330;2023-10-19T11:38:02;96357.25;;;16.64;100.00
55604;BME280;41468;48.838;9.330;2023-10-19T11:40:29;96363.38;;;16.68;100.00
55604;BME280;41468;48.838;9.330;2023-10-19T11:42:56;96371.16;;;16.60;100.00
55604;BME280;41468;48.838;9.330;2023-10-19T11:45:23;96369.91;;;16.52;100.00
55604;BME280;41468;48.838;9.330;2023-10-19T11:47:53;96363.47;;;16.46;100.00
55604;BME280;41468;48.838;9.330;2023-10-19T11:50:19;96375.56;;;16.39;100.00
55604;BME280;41468;48.838;9.330;2023-10-19T11:52:46;96368.16;;;16.36;100.00
55604;BME280;41468;48.838;9.330;2023-10-19T11:55:14;96361.78;;;16.39;100.00
55604;BME280;41468;48.838;9.330;2023-10-19T11:57:44;96355.78;;;16.31;100.00
55604;BME280;41468;48.838;9.330;2023-10-19T12:00:11;96338.63;;;16.27;100.00
55604;BME280;41468;48.838;9.330;2023-10-19T12:03:00;96356.03;;;16.24;100.00
55604;BME280;41468;48.838;9.330;2023-10-19T12:05:27;96352.69;;;16.20;100.00
55604;BME280;41468;48.838;9.330;2023-10-19T12:07:55;96340.41;;;16.12;100.00
55604;BME280;41468;48.838;9.330;2023-10-19T12:10:23;96335.19;;;16.14;100.00
55604;BME280;41468;48.838;9.330;2023-10-19T12:12:59;96329.25;;;16.16;100.00
55604;BME280;41468;48.838;9.330;2023-10-19T12:15:29;96321.91;;;16.12;100.00
55604;BME280;41468;48.838;9.330;2023-10-19T12:17:56;96305.50;;;16.09;100.00
55604;BME280;41468;48.838;9.330;2023-10-19T12:20:24;96302.63;;;16.12;100.00
55604;BME280;41468;48.838;9.330;2023-10-19T12:22:51;96304.00;;;16.17;100.00
55604;BME280;41468;48.838;9.330;2023-10-19T12:25:21;96294.19;;;16.07;100.00
55604;BME280;41468;48.838;9.330;2023-10-19T12:28:08;96298.31;;;16.02;100.00
55604;BME280;41468;48.838;9.330;2023-10-19T12:30:43;96303.50;;;16.00;100.00
55604;BME280;41468;48.838;9.330;2023-10-19T12:33:10;96294.03;;;16.01;100.00
55604;BME280;41468;48.838;9.330;2023-10-19T12:35:41;96283.78;;;16.02;100.00
55604;BME280;41468;48.838;9.330;2023-10-19T12:38:24;96283.03;;;16.01;100.00
55604;BME280;41468;48.838;9.330;2023-10-19T12:40:52;96289.72;;;16.00;100.00
55604;BME280;41468;48.838;9.330;2023-10-19T12:43:19;96279.19;;;15.99;100.00
55604;BME280;41468;48.838;9.330;2023-10-19T12:45:45;96274.56;;;15.96;100.00
55604;BME280;41468;48.838;9.330;2023-10-19T12:48:17;96273.22;;;16.00;100.00
55604;BME280;41468;48.838;9.330;2023-10-19T12:50:44;96266.94;;;16.00;100.00
55604;BME280;41468;48.838;9.330;2023-10-19T12:53:11;96265.09;;;15.97;100.00
55604;BME280;41468;48.838;9.330;2023-10-19T12:55:38;96251.03;;;15.95;100.00
55604;BME280;41468;48.838;9.330;2023-10-19T12:58:05;96247.94;;;15.83;100.00
55604;BME280;41468;48.838;9.330;2023-10-19T13:00:36;96255.53;;;15.79;100.00
55604;BME280;41468;48.838;9.330;2023-10-19T13:03:04;96255.69;;;15.76;100.00
55604;BME280;41468;48.838;9.330;2023-10-19T13:05:33;96246.03;;;15.71;100.00
55604;BME280;41468;48.838;9.330;2023-10-19T13:08:00;96260.34;;;15.66;100.00
55604;BME280;41468;48.838;9.330;2023-10-19T13:10:31;96264.53;;;15.71;100.00
55604;BME280;41468;48.838;9.330;2023-10-19T13:13:02;96264.00;;;15.63;100.00
55604;BME280;41468;48.838;9.330;2023-10-19T13:15:33;96263.09;;;15.66;100.00